Terminal Aerodrome Forecast
Issued by NWS Lake Charles, LA

Home | Current Version | Previous Version | Text Only | Print | Product List | Glossary On
Versions: 1 2 3 4 5 6 7 8 9 10 11 12 13 14 15 16 17 18
000
FTUS44 KLCH 171100
TAFLFT
TAF
KLFT 171125Z 1712/1812 07003KT P6SM FEW002 BKN250
     FM171800 18003KT P6SM VCTS SCT025CB BKN250
     FM180000 21002KT P6SM BKN250=

USA.gov is the U.S. government's official web portal to all federal, state and local government web resources and services.